Time;durP1;ratioP1;P1;durP2;ratioP2;P2;SDS_P1;SDS_P2;PMS_P1;PMS_P2;Temp;Humidity;BMP_temperature;BMP_pressure;BME280_temperature;BME280_humidity;BME280_pressure;Samples;Min_cycle;Max_cycle;Signal;HPM_P1;HPM_P2
2022/03/02 00:02:24;;;;;;;36.22;19.83;;;;;;;4.17;100.00;102794.41;10197520;29;20043;-81
2022/03/02 00:07:25;;;;;;;35.28;18.90;;;;;;;4.15;100.00;102804.63;10229096;29;20591;-82
2022/03/02 00:12:25;;;;;;;38.75;21.58;;;;;;;4.09;100.00;102801.69;10215458;29;20051;-82
2022/03/02 00:17:26;;;;;;;36.42;20.90;;;;;;;4.08;100.00;102792.69;10231654;29;20054;-83
2022/03/02 00:22:26;;;;;;;43.10;23.75;;;;;;;4.03;100.00;102789.56;10230164;29;20027;-83
2022/03/02 00:27:27;;;;;;;42.15;22.08;;;;;;;4.00;100.00;102792.63;10230424;29;20044;-83
2022/03/02 00:32:27;;;;;;;41.42;24.20;;;;;;;3.98;100.00;102786.50;10212681;29;20039;-82
2022/03/02 00:37:28;;;;;;;44.90;23.95;;;;;;;3.94;100.00;102785.13;10197790;29;20111;-82
2022/03/02 00:42:30;;;;;;;44.15;24.05;;;;;;;3.93;100.00;102781.53;10214612;29;20047;-82
2022/03/02 00:47:30;;;;;;;46.33;24.80;;;;;;;3.93;100.00;102777.97;10197498;29;20035;-83
2022/03/02 00:52:31;;;;;;;45.15;24.83;;;;;;;3.90;100.00;102775.56;10218343;29;20376;-83
2022/03/02 00:57:31;;;;;;;50.03;26.25;;;;;;;3.84;100.00;102764.31;10268148;29;20505;-83
2022/03/02 01:02:32;;;;;;;43.47;25.15;;;;;;;3.86;100.00;102768.72;10232900;29;20038;-83
2022/03/02 01:07:33;;;;;;;45.65;24.30;;;;;;;3.84;100.00;102779.78;10212990;29;20028;-83
2022/03/02 01:12:33;;;;;;;52.35;28.40;;;;;;;3.78;100.00;102762.25;10229387;29;20043;-83
2022/03/02 01:17:34;;;;;;;47.28;25.75;;;;;;;3.81;100.00;102772.78;10211995;29;20067;-82
2022/03/02 01:22:34;;;;;;;45.00;25.23;;;;;;;3.63;100.00;102763.84;10211718;29;20039;-81
2022/03/02 01:27:35;;;;;;;45.50;25.70;;;;;;;3.80;100.00;102762.06;10227798;29;20451;-82
2022/03/02 01:32:36;;;;;;;44.75;26.17;;;;;;;3.73;100.00;102742.78;10228238;29;20034;-82
2022/03/02 01:37:36;;;;;;;43.53;23.88;;;;;;;3.71;100.00;102741.25;10227305;29;20051;-82
2022/03/02 01:42:40;;;;;;;44.20;24.83;;;;;;;3.75;100.00;102748.94;10228457;29;20054;-82
2022/03/02 01:47:41;;;;;;;53.85;28.23;;;;;;;3.71;100.00;102730.34;10227398;29;20032;-82
2022/03/02 01:52:41;;;;;;;44.20;25.00;;;;;;;3.64;100.00;102719.25;10211694;29;20045;-82
2022/03/02 01:57:42;;;;;;;47.15;25.95;;;;;;;3.69;100.00;102727.78;10210853;29;20042;-82
2022/03/02 02:02:42;;;;;;;51.60;26.42;;;;;;;3.64;100.00;102717.38;10230513;29;20039;-83
2022/03/02 02:07:44;;;;;;;51.20;26.75;;;;;;;3.66;100.00;102722.69;10251727;29;20031;-82
2022/03/02 02:12:44;;;;;;;47.55;26.58;;;;;;;3.14;100.00;102641.06;10269022;29;20031;-83
2022/03/02 02:17:45;;;;;;;47.50;25.33;;;;;;;3.62;100.00;102724.03;10250981;29;20031;-83
2022/03/02 02:22:46;;;;;;;47.00;25.60;;;;;;;3.59;100.00;102722.44;10267472;29;20040;-83
2022/03/02 02:27:48;;;;;;;54.88;27.23;;;;;;;3.56;100.00;102725.53;10234742;28;20035;-83
2022/03/02 02:32:48;;;;;;;51.30;26.42;;;;;;;3.54;100.00;102713.09;10200765;29;20036;-82
2022/03/02 02:37:48;;;;;;;48.42;28.75;;;;;;;3.51;100.00;102707.94;10236825;29;20052;-83
2022/03/02 02:42:49;;;;;;;53.63;28.65;;;;;;;3.44;100.00;102697.69;10249146;29;20047;-83
2022/03/02 02:47:54;;;;;;;53.28;27.98;;;;;;;3.40;100.00;102699.03;10240851;29;20039;-83
2022/03/02 02:52:55;;;;;;;51.95;27.65;;;;;;;3.31;100.00;102689.13;10240700;29;20027;-83
2022/03/02 02:57:56;;;;;;;55.70;28.60;;;;;;;3.20;100.00;102673.94;10224441;29;20036;-82
2022/03/02 03:02:57;;;;;;;54.03;28.02;;;;;;;3.22;100.00;102682.81;10250861;29;20111;-80
2022/03/02 03:08:04;;;;;;;54.88;28.70;;;;;;;3.10;100.00;102667.75;10234487;29;20039;-82
2022/03/02 03:13:04;;;;;;;53.70;28.50;;;;;;;2.99;100.00;102668.84;10216650;29;20032;-83
2022/03/02 03:18:05;;;;;;;53.75;28.73;;;;;;;2.90;100.00;102667.09;10216202;29;20035;-82
2022/03/02 03:23:06;;;;;;;53.67;28.13;;;;;;;2.94;100.00;102678.53;10199685;29;20043;-83
2022/03/02 03:28:07;;;;;;;52.20;28.30;;;;;;;2.85;100.00;102674.88;10215730;29;20046;-83
2022/03/02 03:33:07;;;;;;;52.42;29.23;;;;;;;2.78;100.00;102685.53;10231992;29;20036;-83
2022/03/02 03:38:08;;;;;;;54.17;27.15;;;;;;;2.48;100.00;102646.06;10232600;29;20051;-83
2022/03/02 03:43:08;;;;;;;51.17;27.98;;;;;;;2.61;100.00;102681.84;10230299;29;20040;-83
2022/03/02 03:48:09;;;;;;;54.78;29.08;;;;;;;2.55;100.00;102684.34;10214780;29;20039;-82
2022/03/02 03:53:11;;;;;;;59.70;29.30;;;;;;;2.41;100.00;102674.88;10231326;29;20043;-83
2022/03/02 03:58:11;;;;;;;59.60;31.17;;;;;;;2.26;100.00;102673.72;10213286;29;20027;-82
2022/03/02 04:03:12;;;;;;;59.17;30.67;;;;;;;2.10;100.00;102680.69;10255408;29;20047;-83
2022/03/02 04:08:12;;;;;;;61.75;30.33;;;;;;;1.92;100.00;102672.53;10231980;29;20113;-83
2022/03/02 04:13:13;;;;;;;61.33;32.10;;;;;;;1.77;100.00;102674.88;10197965;29;20028;-83
2022/03/02 04:18:13;;;;;;;69.47;32.38;;;;;;;1.74;100.00;102679.78;10230979;29;20046;-83
2022/03/02 04:23:14;;;;;;;62.92;30.70;;;;;;;1.66;100.00;102661.53;10212978;29;20570;-82
2022/03/02 04:28:14;;;;;;;59.97;32.50;;;;;;;1.54;100.00;102662.75;10213443;29;20035;-82
2022/03/02 04:33:15;;;;;;;73.68;33.75;;;;;;;1.44;100.00;102653.78;10165939;29;20095;-83
2022/03/02 04:38:15;;;;;;;70.38;33.17;;;;;;;1.33;100.00;102633.13;10191536;29;20413;-83
2022/03/02 04:43:17;;;;;;;74.85;33.50;;;;;;;1.32;100.00;102647.69;10189320;29;20052;-82
2022/03/02 04:48:18;;;;;;;73.55;35.10;;;;;;;1.22;100.00;102636.91;10173080;29;20032;-81
2022/03/02 04:53:18;;;;;;;71.65;35.03;;;;;;;1.19;100.00;102642.63;10188401;29;20036;-83
2022/03/02 04:58:19;;;;;;;69.50;31.75;;;;;;;1.13;100.00;102644.06;10207281;29;20031;-82
2022/03/02 05:03:19;;;;;;;66.43;35.25;;;;;;;1.08;100.00;102629.25;10251987;29;20082;-82
2022/03/02 05:08:20;;;;;;;74.63;34.55;;;;;;;1.02;100.00;102629.84;10269992;29;20050;-82
2022/03/02 05:13:20;;;;;;;74.03;34.40;;;;;;;0.92;100.00;102638.84;10251555;29;20178;-82
2022/03/02 05:18:21;;;;;;;68.85;37.30;;;;;;;0.76;100.00;102615.06;10232550;29;20044;-82
2022/03/02 05:23:21;;;;;;;72.03;35.20;;;;;;;0.78;100.00;102633.88;10226932;29;20043;-82
2022/03/02 05:28:21;;;;;;;82.50;37.50;;;;;;;0.66;100.00;102626.94;10227893;29;20091;-82
2022/03/02 05:33:22;;;;;;;74.68;35.58;;;;;;;0.63;100.00;102633.50;10229331;29;20027;-81
2022/03/02 05:38:22;;;;;;;73.32;35.92;;;;;;;0.49;100.00;102618.53;10212344;29;20051;-81
2022/03/02 05:43:23;;;;;;;75.97;35.35;;;;;;;0.38;100.00;102621.41;10227056;29;20035;-81
2022/03/02 05:48:23;;;;;;;75.10;35.28;;;;;;;0.27;100.00;102629.69;10227987;29;20027;-81
2022/03/02 05:53:24;;;;;;;75.38;33.85;;;;;;;0.11;100.00;102620.28;10227737;29;20035;-82
2022/03/02 05:58:25;;;;;;;70.93;33.78;;;;;;;-0.07;100.00;102606.59;10227291;29;20028;-82
2022/03/02 06:03:26;;;;;;;79.05;38.10;;;;;;;-0.01;100.00;102624.97;10229350;29;20047;-82
2022/03/02 06:08:26;;;;;;;87.47;40.80;;;;;;;0.09;100.00;102626.84;10219110;29;20032;-81
2022/03/02 06:13:27;;;;;;;88.95;38.97;;;;;;;0.12;100.00;102632.81;10235324;29;20032;-82
2022/03/02 06:18:29;;;;;;;95.97;43.72;;;;;;;0.19;100.00;102652.09;10218175;29;20381;-82
2022/03/02 06:23:29;;;;;;;82.50;39.95;;;;;;;0.20;100.00;102657.34;10216107;29;20038;-82
2022/03/02 06:28:30;;;;;;;87.13;41.08;;;;;;;0.14;100.00;102654.34;10200925;29;20469;-82
2022/03/02 06:33:30;;;;;;;92.60;44.03;;;;;;;0.23;100.00;102671.59;10218468;29;20461;-83
2022/03/02 06:38:31;;;;;;;81.80;41.35;;;;;;;0.26;100.00;102661.34;10233755;29;20123;-82
2022/03/02 06:43:33;;;;;;;84.30;41.60;;;;;;;0.37;100.00;102687.44;10232867;29;20491;-84
2022/03/02 06:48:37;;;;;;;81.45;41.22;;;;;;;0.45;100.00;102684.84;10216050;29;20027;-83
2022/03/02 06:53:37;;;;;;;92.22;41.42;;;;;;;0.36;100.00;102650.50;10216289;29;20032;-83
2022/03/02 06:58:42;;;;;;;81.90;41.60;;;;;;;0.56;100.00;102679.31;10216856;29;20027;-83
2022/03/02 07:03:45;;;;;;;86.95;41.55;;;;;;;0.59;100.00;102673.59;10226187;29;20681;-83
2022/03/02 07:08:45;;;;;;;83.47;40.47;;;;;;;0.63;100.00;102659.75;10240327;29;20032;-82
2022/03/02 07:13:46;;;;;;;80.70;37.13;;;;;;;0.75;100.00;102655.88;10254679;29;20086;-83
2022/03/02 07:18:47;;;;;;;79.75;38.67;;;;;;;0.93;100.00;102664.97;10238788;29;20043;-82
2022/03/02 07:23:55;;;;;;;69.13;35.42;;;;;;;1.03;100.00;102664.09;10255071;29;20155;-81
2022/03/02 07:28:56;;;;;;;70.10;34.67;;;;;;;1.09;100.00;102666.22;10239020;29;20035;-82
2022/03/02 07:33:57;;;;;;;67.95;36.70;;;;;;;1.12;100.00;102652.38;10224319;29;20047;-82
2022/03/02 07:38:57;;;;;;;59.90;33.22;;;;;;;1.30;100.00;102658.72;10254908;29;20047;-83
2022/03/02 07:43:58;;;;;;;61.28;31.88;;;;;;;1.35;100.00;102650.13;10238675;29;20069;-82
2022/03/02 07:48:58;;;;;;;60.85;32.35;;;;;;;1.45;100.00;102661.78;10209173;29;20036;-83
2022/03/02 07:54:03;;;;;;;62.78;31.08;;;;;;;1.53;100.00;102661.91;10214704;29;20477;-83
2022/03/02 07:59:05;;;;;;;55.40;28.15;;;;;;;1.55;100.00;102649.03;10215350;29;20517;-82
2022/03/02 08:04:07;;;;;;;51.17;27.20;;;;;;;1.59;100.00;102638.69;10199100;29;20028;-83
2022/03/02 08:09:08;;;;;;;55.00;28.63;;;;;;;1.68;100.00;102659.53;10213766;29;20498;-83
2022/03/02 08:14:09;;;;;;;54.15;30.27;;;;;;;1.80;100.00;102666.47;10213721;29;20121;-82
2022/03/02 08:19:11;;;;;;;50.47;28.17;;;;;;;1.96;100.00;102676.66;10212830;29;20027;-82
2022/03/02 08:24:12;;;;;;;58.65;28.75;;;;;;;1.99;100.00;102679.06;10211898;29;20059;-83
2022/03/02 08:29:13;;;;;;;53.30;29.00;;;;;;;1.94;100.00;102654.22;10195219;29;20465;-83
2022/03/02 08:34:13;;;;;;;55.40;28.48;;;;;;;2.08;100.00;102663.69;10180429;29;20058;-83
2022/03/02 08:39:14;;;;;;;49.75;27.45;;;;;;;2.11;100.00;102638.06;10195644;29;20146;-82
2022/03/02 08:44:14;;;;;;;53.63;28.27;;;;;;;2.35;100.00;102656.47;10181305;29;20047;-83
2022/03/02 08:49:16;;;;;;;51.97;28.27;;;;;;;1.69;100.00;102517.31;10211599;29;20039;-81
2022/03/02 08:54:18;;;;;;;54.28;28.42;;;;;;;2.62;100.00;102645.50;10229643;29;20028;-80
2022/03/02 08:59:18;;;;;;;54.15;28.75;;;;;;;2.75;100.00;102642.34;10167677;29;20032;-82
2022/03/02 09:04:19;;;;;;;47.53;26.90;;;;;;;2.96;100.00;102652.03;10183157;29;20369;-82
2022/03/02 09:09:19;;;;;;;45.80;25.35;;;;;;;2.74;100.00;102597.13;10178896;29;20508;-82
2022/03/02 09:14:20;;;;;;;45.20;24.88;;;;;;;2.11;100.00;102470.50;10176723;29;20036;-82
2022/03/02 09:19:20;;;;;;;38.75;22.35;;;;;;;2.37;100.00;102480.50;10138807;29;20024;-82
2022/03/02 09:24:22;;;;;;;44.83;22.90;;;;;;;3.57;100.00;102650.94;10171971;29;20037;-81
2022/03/02 09:29:22;;;;;;;50.92;26.33;;;;;;;3.76;100.00;102630.78;10158437;29;20044;-82
2022/03/02 09:34:27;;;;;;;42.90;23.00;;;;;;;3.87;100.00;102626.03;10169844;29;20037;-82
2022/03/02 09:39:28;;;;;;;39.50;21.63;;;;;;;4.16;100.00;102626.41;10160422;29;20055;-83
2022/03/02 09:44:42;;;;;;;41.17;21.75;;;;;;;4.52;100.00;102634.25;10186954;29;20032;-82
2022/03/02 09:49:53;;;;;;;35.88;20.83;;;;;;;4.81;100.00;102620.06;10182663;29;20038;-82
2022/03/02 09:54:56;;;;;;;37.95;21.30;;;;;;;5.17;100.00;102611.47;10179978;29;20523;-82
2022/03/02 09:59:56;;;;;;;34.38;20.70;;;;;;;5.46;100.00;102601.78;10163727;29;20159;-82
2022/03/02 10:04:58;;;;;;;35.78;21.05;;;;;;;5.41;100.00;102523.09;10213630;29;20039;-83
2022/03/02 10:10:13;;;;;;;33.80;18.70;;;;;;;6.12;100.00;102580.41;10185226;29;20129;-81
2022/03/02 10:15:14;;;;;;;29.30;16.83;;;;;;;6.57;100.00;102573.16;10201338;29;20043;-81
2022/03/02 10:20:17;;;;;;;35.97;19.88;;;;;;;6.84;100.00;102562.59;10217571;29;20036;-84
2022/03/02 10:25:17;;;;;;;31.25;17.60;;;;;;;7.13;100.00;102578.22;10186766;29;20035;-83
2022/03/02 10:30:18;;;;;;;34.22;18.88;;;;;;;7.39;100.00;102580.44;10182607;29;20032;-83
2022/03/02 10:35:21;;;;;;;29.25;16.73;;;;;;;7.60;100.00;102570.56;10180209;29;20063;-83
2022/03/02 10:40:24;;;;;;;26.83;16.42;;;;;;;7.74;100.00;102569.69;10197580;29;20067;-82
2022/03/02 10:45:26;;;;;;;26.50;16.08;;;;;;;7.88;100.00;102566.03;10213403;29;20129;-82
2022/03/02 10:50:28;;;;;;;25.58;14.98;;;;;;;8.14;100.00;102558.25;10256049;28;20090;-82
2022/03/02 10:55:31;;;;;;;26.65;15.70;;;;;;;7.70;100.00;102435.94;10226103;29;20028;-82
2022/03/02 11:00:31;;;;;;;26.58;15.50;;;;;;;8.58;100.00;102552.56;10237169;29;20059;-81
2022/03/02 11:05:32;;;;;;;29.45;15.40;;;;;;;8.83;100.00;102560.34;10215673;29;20046;-83
2022/03/02 11:10:33;;;;;;;28.35;16.48;;;;;;;9.01;99.08;102549.66;10214899;29;20090;-82
2022/03/02 11:15:45;;;;;;;28.17;16.10;;;;;;;9.23;97.16;102541.31;10215630;29;20043;-82
2022/03/02 11:21:00;;;;;;;26.15;16.13;;;;;;;9.55;94.26;102538.88;10217481;29;20032;-83
2022/03/02 11:26:06;;;;;;;28.80;16.92;;;;;;;9.74;92.17;102535.34;10200899;29;20142;-83
2022/03/02 11:31:08;;;;;;;27.08;15.18;;;;;;;9.98;90.70;102527.56;10238128;29;20765;-83
2022/03/02 11:36:10;;;;;;;25.27;15.30;;;;;;;10.19;90.36;102521.88;10223343;29;20047;-83
2022/03/02 11:41:11;;;;;;;26.83;15.80;;;;;;;10.37;90.64;102514.91;10254782;29;20045;-85
2022/03/02 11:46:12;;;;;;;29.42;17.52;;;;;;;10.54;84.75;102490.50;10263191;29;20067;-87
2022/03/02 11:51:28;;;;;;;26.75;15.82;;;;;;;10.68;85.86;102494.94;10214776;29;20086;-84
2022/03/02 11:56:29;;;;;;;22.98;14.18;;;;;;;10.81;81.95;102483.91;10209375;29;20028;-87
2022/03/02 12:01:44;;;;;;;24.10;14.70;;;;;;;11.03;81.38;102476.16;10189494;29;20092;-86
2022/03/02 12:06:51;;;;;;;23.08;15.18;;;;;;;11.00;80.12;102476.63;10209152;29;20024;-84
2022/03/02 12:11:54;;;;;;;23.58;14.57;;;;;;;11.42;80.83;102477.03;10206637;29;20043;-82
2022/03/02 12:16:56;;;;;;;26.55;15.65;;;;;;;11.52;79.14;102457.25;10206494;29;20046;-85
2022/03/02 12:22:01;;;;;;;24.48;14.57;;;;;;;11.89;78.78;102425.19;10180765;29;20127;-85
2022/03/02 12:27:07;;;;;;;24.67;15.73;;;;;;;12.91;74.07;102437.72;10212281;29;20059;-88
2022/03/02 12:32:15;;;;;;;28.13;17.00;;;;;;;13.25;73.50;102418.75;10217123;29;20205;-85
2022/03/02 12:37:16;;;;;;;25.67;16.40;;;;;;;14.03;70.60;102394.75;10198213;29;20050;-88
2022/03/02 12:42:16;;;;;;;23.35;15.93;;;;;;;14.68;69.12;102402.91;10198058;29;20036;-86
2022/03/02 12:47:18;;;;;;;23.35;16.52;;;;;;;14.91;65.56;102401.16;10196771;29;20031;-87
2022/03/02 12:52:21;;;;;;;24.13;16.38;;;;;;;14.83;65.75;102393.25;10195018;29;20035;-88
2022/03/02 12:57:25;;;;;;;23.95;16.55;;;;;;;15.01;63.13;102387.50;10211765;29;20028;-86
2022/03/02 13:02:33;;;;;;;21.25;15.70;;;;;;;15.20;61.06;102379.00;10195780;29;20023;-91
2022/03/02 13:08:04;;;;;;;22.17;15.95;;;;;;;15.05;62.00;102385.94;10225940;29;20031;-86
2022/03/02 13:13:05;;;;;;;23.27;16.65;;;;;;;15.47;60.32;102365.31;10226500;29;20031;-88
2022/03/02 13:18:09;;;;;;;24.88;15.52;;;;;;;15.75;60.19;102372.78;10210475;29;20034;-89
2022/03/02 13:23:13;;;;;;;24.38;17.20;;;;;;;16.08;59.21;102369.13;10210519;29;20036;-90
2022/03/02 13:28:13;;;;;;;22.30;16.00;;;;;;;16.24;57.55;102314.59;10186703;29;20020;-89
2022/03/02 13:33:14;;;;;;;22.45;16.80;;;;;;;16.20;56.13;102352.31;10208013;29;20028;-88
2022/03/02 13:38:16;;;;;;;23.45;16.02;;;;;;;16.06;56.22;102354.66;10211171;29;20040;-90
2022/03/02 13:43:19;;;;;;;21.77;15.25;;;;;;;16.03;55.81;102351.53;10178837;29;20515;-87
2022/03/02 13:48:21;;;;;;;23.02;16.63;;;;;;;16.05;55.81;102313.22;10210692;29;20036;-92
2022/03/02 13:53:37;;;;;;;24.40;17.48;;;;;;;16.71;54.35;102330.75;10183569;29;20044;-89
2022/03/02 13:59:12;;;;;;;22.00;15.98;;;;;;;17.00;53.18;102322.19;10169537;29;20100;-89
2022/03/02 14:22:23;;;;;;;22.77;16.88;;;;;;;16.32;51.31;102171.56;5761822;23;20079;-88
2022/03/02 14:27:29;;;;;;;22.15;16.02;;;;;;;17.15;50.24;102288.94;10200108;29;20043;-89
2022/03/02 14:32:35;;;;;;;26.75;16.92;;;;;;;17.14;50.25;102287.28;10211044;29;20315;-90
2022/03/02 14:37:45;;;;;;;22.80;17.33;;;;;;;16.91;50.47;102259.81;10231068;29;20050;-89
2022/03/02 14:42:46;;;;;;;24.30;16.40;;;;;;;16.92;51.92;102294.84;10213134;29;20039;-89
2022/03/02 14:47:49;;;;;;;27.35;17.77;;;;;;;16.49;50.58;102246.53;10222963;29;20031;-89
2022/03/02 14:52:52;;;;;;;23.42;16.67;;;;;;;16.66;51.21;102247.28;10227959;29;20111;-92
2022/03/02 14:57:53;;;;;;;23.88;16.38;;;;;;;15.56;49.13;102063.19;10180026;29;20034;-92
2022/03/02 15:02:54;;;;;;;27.67;17.42;;;;;;;16.48;50.02;102281.00;10212193;29;20123;-91
2022/03/02 15:07:55;;;;;;;25.30;17.30;;;;;;;15.90;50.83;102136.94;10195795;29;20019;-91
2022/03/02 15:18:36;;;;;;;27.92;18.63;;;;;;;15.04;51.52;102189.25;10123350;29;20040;-88
2022/03/02 16:23:06;;;;;;;37.38;19.10;;;;;;;8.29;77.74;102276.41;7292573;23;20030;31
2022/03/02 16:29:02;;;;;;;29.98;17.52;;;;;;;8.00;80.42;102269.28;11295304;23;20065;-92
2022/03/02 16:40:45;;;;;;;33.97;18.45;;;;;;;7.48;86.46;102266.03;10267915;29;20051;-86
2022/03/02 16:45:45;;;;;;;30.40;18.40;;;;;;;7.28;90.27;102263.16;10245856;29;20043;-84
2022/03/02 16:50:46;;;;;;;37.42;19.92;;;;;;;7.06;95.33;102271.38;10223562;29;20369;-84
2022/03/02 16:55:47;;;;;;;33.95;19.45;;;;;;;6.83;100.00;102281.69;10234115;29;20058;-85
2022/03/02 17:00:47;;;;;;;33.53;19.90;;;;;;;6.59;100.00;102278.25;10217819;29;20038;-83
2022/03/02 17:05:49;;;;;;;37.33;20.50;;;;;;;6.41;100.00;102278.72;10234002;29;20039;-83
2022/03/02 17:10:49;;;;;;;32.67;19.58;;;;;;;6.20;100.00;102281.38;10234964;29;20024;-81
2022/03/02 17:15:51;;;;;;;34.83;19.80;;;;;;;5.98;100.00;102277.75;10234002;29;20031;-82
2022/03/02 17:20:51;;;;;;;35.80;19.48;;;;;;;5.69;100.00;102270.38;10217945;29;20424;-82
2022/03/02 17:25:52;;;;;;;36.17;21.00;;;;;;;5.57;100.00;102286.34;10232667;29;20498;-82
2022/03/02 17:30:53;;;;;;;37.67;21.40;;;;;;;5.43;100.00;102286.13;10231923;29;20043;-82
2022/03/02 17:35:53;;;;;;;37.45;21.55;;;;;;;5.21;100.00;102281.59;10239369;29;20031;-82
2022/03/02 17:40:54;;;;;;;39.10;21.45;;;;;;;5.02;100.00;102278.34;10255356;29;20126;-81
2022/03/02 17:45:54;;;;;;;37.35;20.98;;;;;;;4.89;100.00;102299.91;10237411;29;20051;-82
2022/03/02 17:50:55;;;;;;;37.60;20.95;;;;;;;4.64;100.00;102286.44;10237370;29;20123;-82
2022/03/02 17:55:55;;;;;;;37.53;21.77;;;;;;;4.56;100.00;102293.81;10253216;29;20059;-81
2022/03/02 18:00:56;;;;;;;37.30;22.15;;;;;;;4.50;100.00;102310.91;10241353;28;20032;-82
2022/03/02 18:05:57;;;;;;;40.60;21.95;;;;;;;4.35;100.00;102308.09;10261136;29;20035;-81
2022/03/02 18:10:57;;;;;;;50.78;23.05;;;;;;;4.20;100.00;102311.56;10246207;29;20055;-82
2022/03/02 18:15:58;;;;;;;44.53;22.40;;;;;;;3.91;100.00;102268.59;10276774;29;20665;-82
2022/03/02 18:21:04;;;;;;;45.20;22.90;;;;;;;3.64;100.00;102250.81;10277397;29;20047;-82
2022/03/02 18:26:18;;;;;;;42.42;23.20;;;;;;;3.79;100.00;102298.06;10244717;29;20035;-82
2022/03/02 18:31:19;;;;;;;41.90;22.30;;;;;;;3.65;100.00;102312.41;10244182;29;20086;-81
2022/03/02 18:36:19;;;;;;;44.20;23.23;;;;;;;3.51;100.00;102299.50;10244919;29;20138;-81
2022/03/02 18:41:20;;;;;;;49.22;24.73;;;;;;;3.34;100.00;102288.63;10276306;29;20043;-82
2022/03/02 18:46:21;;;;;;;46.08;24.88;;;;;;;3.31;100.00;102294.41;10243531;29;20124;-81
2022/03/02 18:51:21;;;;;;;59.25;26.30;;;;;;;3.12;100.00;102292.03;10259189;29;20035;-80
2022/03/02 18:56:22;;;;;;;50.97;26.15;;;;;;;3.09;100.00;102301.38;10258613;29;20046;-80
2022/03/02 19:01:24;;;;;;;46.97;23.08;;;;;;;3.03;100.00;102296.63;10258836;29;20039;-80
2022/03/02 19:06:25;;;;;;;48.70;25.70;;;;;;;2.70;100.00;102246.81;10259838;29;20111;-81
2022/03/02 19:11:25;;;;;;;48.20;25.48;;;;;;;2.84;100.00;102281.50;10257756;28;20042;-81
2022/03/02 19:16:26;;;;;;;52.97;27.67;;;;;;;2.83;100.00;102290.66;10242436;29;20526;-82
2022/03/02 19:21:26;;;;;;;55.22;28.55;;;;;;;2.70;100.00;102279.44;10241690;29;20094;-82
2022/03/02 19:26:27;;;;;;;58.15;28.92;;;;;;;2.68;100.00;102298.63;10241398;29;20031;-82
2022/03/02 19:31:27;;;;;;;53.65;27.17;;;;;;;2.53;100.00;102295.72;10275169;29;20037;-82
2022/03/02 19:36:28;;;;;;;60.55;29.90;;;;;;;2.39;100.00;102302.63;10258152;29;20043;-81
2022/03/02 19:41:28;;;;;;;58.00;29.38;;;;;;;2.21;100.00;102302.75;10275064;29;20095;-81
2022/03/02 19:46:29;;;;;;;61.53;32.13;;;;;;;2.04;100.00;102295.53;10241024;29;20047;-81
2022/03/02 19:51:30;;;;;;;59.38;29.85;;;;;;;1.94;100.00;102311.09;10240813;29;20035;-82
2022/03/02 19:56:30;;;;;;;68.72;33.55;;;;;;;1.79;100.00;102319.00;10224262;29;20045;-82
2022/03/02 20:01:31;;;;;;;68.82;31.63;;;;;;;1.68;100.00;102319.28;10240377;29;20035;-82
2022/03/02 20:06:31;;;;;;;62.17;32.03;;;;;;;1.53;100.00;102324.44;10257206;29;20071;-81
2022/03/02 20:11:33;;;;;;;74.65;34.17;;;;;;;1.42;100.00;102311.97;10273532;29;20035;-82
2022/03/02 20:16:34;;;;;;;67.88;33.70;;;;;;;1.12;100.00;102267.19;10256130;29;20035;-83
2022/03/02 20:21:34;;;;;;;80.03;38.03;;;;;;;1.37;100.00;102320.59;10239481;28;20031;-82
2022/03/02 20:26:36;;;;;;;83.35;35.85;;;;;;;1.34;100.00;102323.63;10272302;29;20051;-83
2022/03/02 20:31:36;;;;;;;74.78;38.88;;;;;;;1.32;100.00;102327.50;10255559;29;20035;-82
2022/03/02 20:36:38;;;;;;;81.53;36.95;;;;;;;1.36;100.00;102328.91;10240202;29;20051;-82
2022/03/02 20:41:39;;;;;;;76.47;38.55;;;;;;;1.34;100.00;102337.19;10239747;29;20491;-82
2022/03/02 20:46:39;;;;;;;75.63;37.08;;;;;;;1.28;100.00;102331.53;10223006;29;20035;-82
2022/03/02 20:51:40;;;;;;;79.47;36.10;;;;;;;1.15;100.00;102331.94;10254557;29;20027;-84
2022/03/02 20:56:40;;;;;;;81.88;38.25;;;;;;;1.06;100.00;102332.91;10271303;29;20023;-84
2022/03/02 21:01:41;;;;;;;87.00;40.55;;;;;;;1.03;100.00;102349.47;10237220;29;20019;-85
2022/03/02 21:06:41;;;;;;;81.97;37.92;;;;;;;0.94;100.00;102341.25;10255321;29;20051;-83
2022/03/02 21:11:42;;;;;;;95.53;42.58;;;;;;;0.87;100.00;102340.19;10270210;29;20031;-84
2022/03/02 21:16:42;;;;;;;82.15;38.38;;;;;;;0.69;100.00;102315.75;10252030;29;20043;-82
2022/03/02 21:21:43;;;;;;;94.07;43.13;;;;;;;0.74;100.00;102331.56;10238003;29;20039;-84
2022/03/02 21:26:45;;;;;;;102.68;41.95;;;;;;;0.64;100.00;102311.81;10253349;29;20051;-84
2022/03/02 21:31:46;;;;;;;102.35;43.17;;;;;;;0.72;100.00;102325.44;10254226;29;20063;-81
2022/03/02 21:36:47;;;;;;;104.28;44.03;;;;;;;0.77;100.00;102323.13;10260021;29;20055;-84
2022/03/02 21:41:47;;;;;;;95.05;42.63;;;;;;;0.81;100.00;102319.09;10261917;29;20050;-83
2022/03/02 21:46:47;;;;;;;93.40;43.35;;;;;;;0.78;100.00;102324.81;10245821;29;20035;-83
2022/03/02 21:51:48;;;;;;;99.20;44.22;;;;;;;0.77;100.00;102318.56;10261438;29;20023;-82
2022/03/02 21:56:51;;;;;;;98.53;42.72;;;;;;;0.72;100.00;102309.19;10278146;29;20062;-83
2022/03/02 22:01:52;;;;;;;99.97;43.63;;;;;;;0.71;100.00;102307.47;10262136;29;20035;-82
2022/03/02 22:06:52;;;;;;;101.40;44.17;;;;;;;0.66;100.00;102307.06;10262002;29;20031;-83
2022/03/02 22:11:52;;;;;;;106.85;46.90;;;;;;;0.60;100.00;102301.28;10276094;29;20032;-83
2022/03/02 22:16:53;;;;;;;97.82;42.90;;;;;;;0.57;100.00;102309.69;10244594;29;20444;-82
2022/03/02 22:21:53;;;;;;;99.00;44.63;;;;;;;0.50;100.00;102314.03;10277690;29;20035;-83
2022/03/02 22:26:54;;;;;;;113.45;45.35;;;;;;;0.47;100.00;102303.50;10260044;29;20051;-83
2022/03/02 22:31:54;;;;;;;96.57;42.50;;;;;;;0.16;100.00;102271.31;10277185;29;20031;-82
2022/03/02 22:36:55;;;;;;;111.68;44.97;;;;;;;0.15;100.00;102285.88;10269498;29;20048;-83
2022/03/02 22:41:55;;;;;;;101.18;45.53;;;;;;;-0.09;100.00;102261.19;10234880;29;20054;-82
2022/03/02 22:46:56;;;;;;;116.45;45.47;;;;;;;0.04;100.00;102294.19;10247286;28;20039;-83
2022/03/02 22:51:57;;;;;;;111.68;48.60;;;;;;;-0.03;100.00;102287.69;10258702;29;20450;-83
2022/03/02 22:56:57;;;;;;;115.65;48.70;;;;;;;0.00;100.00;102287.41;10259177;29;20128;-84
2022/03/02 23:02:07;;;;;;;121.53;48.25;;;;;;;-0.12;100.00;102284.03;10226663;29;20038;-82
2022/03/02 23:17:45;;;;;;;120.97;47.63;;;;;;;-0.21;100.00;102272.25;10235880;29;20039;-84
2022/03/02 23:22:46;;;;;;;116.40;47.20;;;;;;;-0.16;100.00;102277.19;10202359;29;20043;-84
2022/03/02 23:27:47;;;;;;;114.57;46.60;;;;;;;-0.28;100.00;102263.00;10187590;29;20040;-83
2022/03/02 23:32:47;;;;;;;121.88;47.08;;;;;;;-0.30;100.00;102270.41;10256578;29;20215;-83
2022/03/02 23:37:48;;;;;;;123.93;51.97;;;;;;;-0.27;100.00;102278.25;10216250;29;20052;-84
2022/03/02 23:42:48;;;;;;;120.55;48.55;;;;;;;-0.28;100.00;102267.56;10269241;29;20046;-84
2022/03/02 23:47:49;;;;;;;117.45;51.28;;;;;;;-0.31;100.00;102271.44;10274301;29;20040;-84
2022/03/02 23:52:49;;;;;;;111.03;47.25;;;;;;;-0.42;100.00;102253.50;10256320;29;20039;-83
2022/03/02 23:57:50;;;;;;;121.30;50.03;;;;;;;-0.30;100.00;102273.13;10256300;28;20027;-83
